createdAt,value
2018-11-14T00:01:16.372Z,6.30
2018-11-14T00:03:47.176Z,6.33
2018-11-14T00:06:17.984Z,7.10
2018-11-14T00:08:48.324Z,5.53
2018-11-14T00:11:19.703Z,6.87
2018-11-14T00:13:50.720Z,8.27
2018-11-14T00:16:21.727Z,6.73
2018-11-14T00:18:52.624Z,6.60
2018-11-14T00:21:23.713Z,7.20
2018-11-14T00:23:54.543Z,6.70
2018-11-14T00:26:25.380Z,7.30
2018-11-14T00:28:56.485Z,6.83
2018-11-14T00:31:27.456Z,7.40
2018-11-14T00:33:59.157Z,7.37
2018-11-14T00:36:29.640Z,7.10
2018-11-14T00:39:00.329Z,6.77
2018-11-14T00:41:30.962Z,6.97
2018-11-14T00:44:01.969Z,7.27
2018-11-14T00:46:32.019Z,6.87
2018-11-14T00:49:02.449Z,6.83
2018-11-14T00:51:33.507Z,7.37
2018-11-14T00:54:04.475Z,6.70
2018-11-14T00:56:34.682Z,7.43
2018-11-14T00:59:05.766Z,6.97
2018-11-14T01:01:37.034Z,7.10
2018-11-14T01:04:07.802Z,6.63
2018-11-14T01:06:39.064Z,6.97
2018-11-14T01:09:12.521Z,7.37
2018-11-14T01:11:43.565Z,6.97
2018-11-14T01:14:15.454Z,6.80
2018-11-14T01:16:47.063Z,7.20
2018-11-14T01:19:18.057Z,7.23
2018-11-14T01:21:48.903Z,7.23
2018-11-14T01:24:19.600Z,7.23
2018-11-14T01:26:50.156Z,7.40
2018-11-14T01:29:21.107Z,7.30
2018-11-14T01:31:52.027Z,6.97
2018-11-14T01:34:23.533Z,7.03
2018-11-14T01:36:55.401Z,7.13
2018-11-14T01:39:26.300Z,6.63
2018-11-14T01:41:57.376Z,6.47
2018-11-14T01:44:28.037Z,7.10
2018-11-14T01:46:59.023Z,7.37
2018-11-14T01:49:29.370Z,7.73
2018-11-14T01:51:59.353Z,6.97
2018-11-14T01:54:30.636Z,7.10
2018-11-14T01:57:02.149Z,7.40
2018-11-14T01:59:32.699Z,7.97
2018-11-14T02:02:03.593Z,7.67
2018-11-14T02:04:34.237Z,7.30
2018-11-14T02:07:05.482Z,8.10
2018-11-14T02:09:37.104Z,7.87
2018-11-14T02:12:08.221Z,7.60
2018-11-14T02:14:39.005Z,8.70
2018-11-14T02:17:10.028Z,7.87
2018-11-14T02:19:41.202Z,7.80
2018-11-14T02:22:12.204Z,8.40
2018-11-14T02:24:43.101Z,7.63
2018-11-14T02:27:13.774Z,7.33
2018-11-14T02:29:44.755Z,8.33
2018-11-14T02:32:15.474Z,8.00
2018-11-14T02:34:45.898Z,8.33
2018-11-14T02:37:17.520Z,7.37
2018-11-14T02:39:48.569Z,7.53
2018-11-14T02:42:19.364Z,8.50
2018-11-14T02:44:49.998Z,7.87
2018-11-14T02:47:20.777Z,8.03
2018-11-14T02:49:51.608Z,8.13
2018-11-14T02:52:22.444Z,8.07
2018-11-14T02:54:52.614Z,8.73
2018-11-14T02:57:23.797Z,7.00
2018-11-14T02:59:55.204Z,7.50
2018-11-14T03:02:25.832Z,8.20
2018-11-14T03:04:56.614Z,7.83
2018-11-14T03:07:27.313Z,7.50
2018-11-14T03:09:58.090Z,8.73
2018-11-14T03:12:28.499Z,8.30
2018-11-14T03:14:59.591Z,7.80
2018-11-14T03:17:30.361Z,7.70
2018-11-14T03:20:00.997Z,8.50
2018-11-14T03:22:32.078Z,7.87
2018-11-14T03:25:03.247Z,7.27
2018-11-14T03:27:33.509Z,8.13
2018-11-14T03:30:04.525Z,8.27
2018-11-14T03:32:34.488Z,7.97
2018-11-14T03:35:04.756Z,8.80
2018-11-14T03:37:35.469Z,7.73
2018-11-14T03:40:06.941Z,8.00
2018-11-14T03:42:37.731Z,8.80
2018-11-14T03:45:09.904Z,8.83
2018-11-14T03:47:41.288Z,8.57
2018-11-14T03:50:12.289Z,9.67
2018-11-14T03:52:43.002Z,8.60
2018-11-14T03:55:15.152Z,9.00
2018-11-14T03:57:45.957Z,9.00
2018-11-14T04:00:17.471Z,9.47
2018-11-14T04:02:48.426Z,8.17
2018-11-14T04:05:19.446Z,9.17
2018-11-14T04:07:50.196Z,9.10
2018-11-14T04:10:20.936Z,8.50
2018-11-14T04:12:51.997Z,8.70
2018-11-14T04:15:22.203Z,8.30
2018-11-14T04:17:52.990Z,8.80
2018-11-14T04:20:23.963Z,9.17
2018-11-14T04:22:54.994Z,8.93
2018-11-14T04:25:25.583Z,8.80
2018-11-14T04:27:56.296Z,9.03
2018-11-14T04:30:27.060Z,9.03
2018-11-14T04:32:57.957Z,8.90
2018-11-14T04:35:28.336Z,9.73
2018-11-14T04:37:59.620Z,8.73
2018-11-14T04:40:30.494Z,8.90
2018-11-14T04:43:00.773Z,8.73
2018-11-14T04:45:31.316Z,9.87
2018-11-14T04:48:02.739Z,8.73
2018-11-14T04:50:32.843Z,10.73
2018-11-14T04:53:02.855Z,11.00
2018-11-14T04:55:33.465Z,11.63
2018-11-14T04:58:04.499Z,11.17
2018-11-14T05:00:35.844Z,11.17
2018-11-14T05:03:06.510Z,17.15
2018-11-14T05:05:36.732Z,12.40
2018-11-14T05:08:07.702Z,10.77
2018-11-14T05:10:38.727Z,11.13
2018-11-14T05:13:10.113Z,9.53
2018-11-14T05:15:40.838Z,12.33
2018-11-14T05:18:12.140Z,12.23
2018-11-14T05:20:42.891Z,12.57
2018-11-14T05:23:13.992Z,11.17
2018-11-14T05:25:44.923Z,11.53
2018-11-14T05:28:16.286Z,11.10
2018-11-14T05:30:47.753Z,11.00
2018-11-14T05:33:18.938Z,10.90
2018-11-14T05:35:49.863Z,11.37
2018-11-14T05:38:21.181Z,10.20
2018-11-14T05:40:52.071Z,10.83
2018-11-14T05:43:23.000Z,13.67
2018-11-14T05:45:53.949Z,15.50
2018-11-14T05:48:24.855Z,15.37
2018-11-14T05:50:55.687Z,13.80
2018-11-14T05:53:26.832Z,12.20
2018-11-14T05:55:58.049Z,11.53
2018-11-14T05:58:29.097Z,12.17
2018-11-14T06:00:59.368Z,12.30
2018-11-14T06:03:30.652Z,11.83
2018-11-14T06:06:01.430Z,10.80
2018-11-14T06:08:32.399Z,12.90
2018-11-14T06:11:03.951Z,14.17
2018-11-14T06:13:35.105Z,11.50
2018-11-14T06:16:06.086Z,18.17
2018-11-14T06:18:36.816Z,19.90
2018-11-14T06:21:08.601Z,14.67
2018-11-14T06:23:38.761Z,11.63
2018-11-14T06:26:09.904Z,12.17
2018-11-14T06:28:40.895Z,12.40
2018-11-14T06:31:12.120Z,12.57
2018-11-14T06:33:42.960Z,11.80
2018-11-14T06:36:14.339Z,13.63
2018-11-14T06:38:45.747Z,13.00
2018-11-14T06:41:16.661Z,13.30
2018-11-14T06:43:47.511Z,12.60
2018-11-14T06:46:17.894Z,11.87
2018-11-14T06:48:48.683Z,13.17
2018-11-14T06:51:19.615Z,12.87
2018-11-14T06:53:50.434Z,13.00
2018-11-14T06:56:21.387Z,13.93
2018-11-14T06:58:52.559Z,13.97
2018-11-14T07:01:23.485Z,13.10
2018-11-14T07:03:54.455Z,13.03
2018-11-14T07:06:25.311Z,13.67
2018-11-14T07:08:56.182Z,13.23
2018-11-14T07:11:26.747Z,12.57
2018-11-14T07:13:57.747Z,13.17
2018-11-14T07:16:28.944Z,14.63
2018-11-14T07:19:00.686Z,16.13
2018-11-14T07:21:31.629Z,18.63
2018-11-14T07:24:02.890Z,19.40
2018-11-14T07:26:33.005Z,19.47
2018-11-14T07:29:06.199Z,21.67
2018-11-14T07:31:36.438Z,23.43
2018-11-14T07:34:07.362Z,22.17
2018-11-14T07:36:38.238Z,21.67
2018-11-14T07:39:10.340Z,20.43
2018-11-14T07:41:42.053Z,20.40
2018-11-14T07:44:13.050Z,22.33
2018-11-14T07:46:43.972Z,21.80
2018-11-14T07:49:15.452Z,22.20
2018-11-14T07:51:46.105Z,21.07
2018-11-14T07:54:16.851Z,21.27
2018-11-14T07:56:48.002Z,23.77
2018-11-14T07:59:19.421Z,21.13
2018-11-14T08:01:50.285Z,22.73
2018-11-14T08:04:21.202Z,22.47
2018-11-14T08:06:52.093Z,22.33
2018-11-14T08:09:22.835Z,22.70
2018-11-14T08:11:54.193Z,23.87
2018-11-14T08:14:25.225Z,24.03
2018-11-14T08:16:56.438Z,24.67
2018-11-14T08:19:28.098Z,22.60
2018-11-14T08:21:59.145Z,27.67
2018-11-14T08:24:30.175Z,22.70
2018-11-14T08:27:01.045Z,24.47
2018-11-14T08:29:31.448Z,23.33
2018-11-14T08:32:02.036Z,23.40
2018-11-14T08:34:33.199Z,22.80
2018-11-14T08:37:04.066Z,50.27
2018-11-14T08:39:34.871Z,23.13
2018-11-14T08:42:05.838Z,29.40
2018-11-14T08:44:36.317Z,22.07
2018-11-14T08:47:08.292Z,21.17
2018-11-14T08:49:39.719Z,22.30
2018-11-14T08:52:11.391Z,22.17
2018-11-14T08:54:43.139Z,22.20
2018-11-14T08:57:14.840Z,23.00
2018-11-14T08:59:46.717Z,23.80
2018-11-14T09:02:17.943Z,22.47
2018-11-14T09:04:49.132Z,23.13
2018-11-14T09:07:19.932Z,22.77
2018-11-14T09:09:50.802Z,22.23
2018-11-14T09:12:21.912Z,24.40
2018-11-14T09:14:52.322Z,23.03
2018-11-14T09:17:23.106Z,23.60
2018-11-14T09:19:54.631Z,22.60
2018-11-14T09:22:25.436Z,22.83
2018-11-14T09:24:56.444Z,28.87
2018-11-14T09:27:27.604Z,24.23
2018-11-14T09:29:58.496Z,24.30
2018-11-14T09:32:29.401Z,22.90
2018-11-14T09:35:00.484Z,24.20
2018-11-14T09:37:31.302Z,22.80
2018-11-14T09:40:02.268Z,22.37
2018-11-14T09:42:33.212Z,21.90
2018-11-14T09:45:04.209Z,21.60
2018-11-14T09:47:34.382Z,22.90
2018-11-14T09:50:05.841Z,24.20
2018-11-14T09:52:36.754Z,24.30
2018-11-14T09:55:08.337Z,25.50
2018-11-14T09:57:40.757Z,24.27
2018-11-14T10:00:15.090Z,25.00
2018-11-14T10:02:46.234Z,24.70
2018-11-14T10:05:19.775Z,23.33
2018-11-14T10:07:50.655Z,25.80
2018-11-14T10:10:22.521Z,21.70
2018-11-14T10:12:53.818Z,22.97
2018-11-14T10:15:25.067Z,23.23
2018-11-14T10:17:56.753Z,22.87
2018-11-14T10:20:27.781Z,24.10
2018-11-14T10:22:58.558Z,23.03
2018-11-14T10:25:29.284Z,24.93
2018-11-14T10:27:59.254Z,25.40
2018-11-14T10:30:30.348Z,24.10
2018-11-14T10:33:01.028Z,25.43
2018-11-14T10:35:31.504Z,27.03
2018-11-14T10:38:01.300Z,25.70
2018-11-14T10:40:31.310Z,25.47
2018-11-14T10:43:01.286Z,24.50
2018-11-14T10:45:31.127Z,25.00
2018-11-14T10:48:01.062Z,23.30
2018-11-14T10:50:30.917Z,23.33
2018-11-14T10:53:00.871Z,24.47
2018-11-14T10:55:30.822Z,25.93
2018-11-14T10:58:01.752Z,23.67
2018-11-14T11:00:36.586Z,24.57
2018-11-14T11:03:11.813Z,26.20
2018-11-14T11:05:46.860Z,25.97
2018-11-14T11:08:21.829Z,24.43
2018-11-14T11:10:56.979Z,25.00
2018-11-14T11:13:32.000Z,24.87
2018-11-14T11:16:06.950Z,25.50
2018-11-14T11:18:36.913Z,25.87
2018-11-14T11:34:37.075Z,26.47
2018-11-14T11:37:07.274Z,26.67
2018-11-14T11:39:37.182Z,27.70
2018-11-14T11:42:07.393Z,24.83
2018-11-14T11:44:37.502Z,26.37
2018-11-14T11:47:07.778Z,27.67
2018-11-14T11:49:37.930Z,26.67
2018-11-14T11:52:08.178Z,26.83
2018-11-14T11:54:38.362Z,27.10
2018-11-14T11:57:08.185Z,26.70
2018-11-14T11:59:38.634Z,26.83
2018-11-14T12:02:09.216Z,26.80
2018-11-14T12:04:39.359Z,28.00
2018-11-14T12:07:09.511Z,25.37
2018-11-14T12:09:39.699Z,25.13
2018-11-14T12:12:09.639Z,26.00
2018-11-14T12:14:39.862Z,26.13
2018-11-14T12:17:09.740Z,26.60
2018-11-14T12:19:39.688Z,27.93
2018-11-14T12:22:09.804Z,26.20
2018-11-14T12:24:39.842Z,27.97
2018-11-14T12:27:10.001Z,28.13
2018-11-14T12:42:40.491Z,26.27
2018-11-14T12:45:13.827Z,26.03
2018-11-14T12:47:43.926Z,24.33
2018-11-14T12:50:14.625Z,27.23
2018-11-14T12:52:44.741Z,26.53
2018-11-14T12:55:16.204Z,23.87
2018-11-14T12:57:46.170Z,26.57
2018-11-14T13:00:17.312Z,24.30
2018-11-14T13:02:47.418Z,25.10
2018-11-14T13:05:17.520Z,24.00
2018-11-14T13:07:47.387Z,25.33
2018-11-14T13:10:18.391Z,28.27
2018-11-14T13:12:49.215Z,26.27
2018-11-14T13:15:20.067Z,25.30
2018-11-14T13:17:49.672Z,24.50
2018-11-14T13:20:20.962Z,22.87
2018-11-14T13:22:50.829Z,26.03
2018-11-14T13:25:20.633Z,24.60
2018-11-14T13:27:50.616Z,22.10
2018-11-14T13:30:23.587Z,25.73
2018-11-14T13:32:54.112Z,25.93
2018-11-14T13:35:24.344Z,26.07
2018-11-14T13:37:53.985Z,27.00
2018-11-14T13:40:23.568Z,24.57
2018-11-14T13:42:53.283Z,25.67
2018-11-14T13:45:23.070Z,25.77
2018-11-14T13:47:52.758Z,29.60
2018-11-14T13:50:23.130Z,27.53
2018-11-14T13:52:52.825Z,28.13
2018-11-14T13:55:22.541Z,28.77
2018-11-14T13:57:52.841Z,35.20
2018-11-14T14:00:23.287Z,29.57
2018-11-14T14:02:53.940Z,38.03
2018-11-14T14:05:24.904Z,30.53
2018-11-14T14:07:54.467Z,29.40
2018-11-14T14:10:24.376Z,35.90
2018-11-14T14:12:55.031Z,38.43
2018-11-14T14:15:26.398Z,31.87
2018-11-14T14:17:56.204Z,33.67
2018-11-14T14:20:26.133Z,32.53
2018-11-14T14:22:56.143Z,31.47
2018-11-14T14:25:26.003Z,31.67
2018-11-14T14:27:56.088Z,56.83
2018-11-14T14:30:26.037Z,38.23
2018-11-14T14:32:56.042Z,30.83
2018-11-14T14:35:25.808Z,31.70
2018-11-14T14:37:55.666Z,28.97
2018-11-14T14:40:25.577Z,30.17
2018-11-14T14:42:55.613Z,28.93
2018-11-14T14:45:26.571Z,28.10
2018-11-14T14:47:56.401Z,28.27
2018-11-14T14:50:26.333Z,28.83
2018-11-14T14:52:56.284Z,29.00
2018-11-14T14:55:26.477Z,27.23
2018-11-14T14:57:56.157Z,27.27
2018-11-14T15:00:27.091Z,27.30
2018-11-14T15:02:57.072Z,29.33
2018-11-14T15:05:26.892Z,28.33
2018-11-14T15:07:56.570Z,33.30
2018-11-14T15:10:26.427Z,30.03
2018-11-14T15:12:56.311Z,26.70
2018-11-14T15:15:26.120Z,27.17
2018-11-14T15:17:55.731Z,27.77
2018-11-14T15:20:25.679Z,27.73
2018-11-14T15:22:55.452Z,27.80
2018-11-14T15:25:25.170Z,27.83
2018-11-14T15:27:54.969Z,28.90
2018-11-14T15:30:26.888Z,30.53
2018-11-14T15:32:56.701Z,50.43
2018-11-14T15:35:27.069Z,32.53
2018-11-14T15:37:56.751Z,32.77
2018-11-14T15:40:27.334Z,40.83
2018-11-14T15:42:57.307Z,36.00
2018-11-14T15:45:29.301Z,35.40
2018-11-14T15:47:59.273Z,30.40
2018-11-14T15:50:30.465Z,28.57
2018-11-14T15:53:00.451Z,27.13
2018-11-14T15:55:30.455Z,29.30
2018-11-14T15:58:00.089Z,30.97
2018-11-14T16:00:31.075Z,29.53
2018-11-14T16:03:00.996Z,28.00
2018-11-14T16:05:33.048Z,28.23
2018-11-14T16:08:03.689Z,28.17
2018-11-14T16:10:34.393Z,28.90
2018-11-14T16:13:04.420Z,28.50
2018-11-14T16:15:35.620Z,29.33
2018-11-14T16:18:05.621Z,28.70
2018-11-14T16:20:35.995Z,31.40
2018-11-14T16:23:06.004Z,34.97
2018-11-14T16:25:35.717Z,37.43
2018-11-14T16:28:05.681Z,31.33
2018-11-14T16:30:36.904Z,39.37
2018-11-14T16:33:07.950Z,40.23
2018-11-14T16:35:37.959Z,42.17
2018-11-14T16:38:08.396Z,36.60
2018-11-14T16:40:38.210Z,47.87
2018-11-14T16:43:09.198Z,46.17
2018-11-14T16:45:39.044Z,46.13
2018-11-14T16:48:08.954Z,40.70
2018-11-14T16:50:38.975Z,39.97
2018-11-14T16:53:08.727Z,43.60
2018-11-14T16:55:38.690Z,42.70
2018-11-14T16:58:08.249Z,44.90
2018-11-14T17:00:39.218Z,42.17
2018-11-14T17:03:09.061Z,43.97
2018-11-14T17:05:38.728Z,42.67
2018-11-14T17:08:08.383Z,39.93
2018-11-14T17:10:38.168Z,44.20
2018-11-14T17:13:08.000Z,45.07
2018-11-14T17:15:37.950Z,43.70
2018-11-14T17:18:07.762Z,42.97
2018-11-14T17:20:37.861Z,44.77
2018-11-14T17:23:07.920Z,48.17
2018-11-14T17:25:38.106Z,47.90
2018-11-14T17:28:08.429Z,47.60
2018-11-14T17:30:38.472Z,46.43
2018-11-14T17:33:08.648Z,43.87
2018-11-14T17:35:38.704Z,44.77
2018-11-14T17:38:08.572Z,45.40
2018-11-14T17:40:38.402Z,46.37
2018-11-14T17:43:08.373Z,48.30
2018-11-14T17:45:38.285Z,46.17
2018-11-14T17:48:08.314Z,46.40
2018-11-14T17:50:38.227Z,48.57
2018-11-14T17:53:08.183Z,49.23
2018-11-14T17:55:38.143Z,52.57
2018-11-14T17:58:08.017Z,50.20
2018-11-14T18:00:37.968Z,49.87
2018-11-14T18:03:08.298Z,49.97
2018-11-14T18:05:38.205Z,50.83
2018-11-14T18:08:08.363Z,52.83
2018-11-14T18:10:38.360Z,50.83
2018-11-14T18:13:08.511Z,51.50
2018-11-14T18:15:38.616Z,50.13
2018-11-14T18:18:08.664Z,47.73
2018-11-14T18:20:38.506Z,48.77
2018-11-14T18:23:08.495Z,48.00
2018-11-14T18:25:38.439Z,47.43
2018-11-14T18:28:08.562Z,46.27
2018-11-14T18:30:38.718Z,47.07
2018-11-14T18:33:08.931Z,46.60
2018-11-14T18:35:39.822Z,48.43
2018-11-14T18:38:09.788Z,46.30
2018-11-14T18:40:39.684Z,45.63
2018-11-14T18:43:09.863Z,45.53
2018-11-14T18:45:39.990Z,45.17
2018-11-14T18:48:11.921Z,44.07
2018-11-14T18:50:41.968Z,44.30
2018-11-14T18:53:12.110Z,46.30
2018-11-14T18:55:42.222Z,46.60
2018-11-14T18:58:12.135Z,45.43
2018-11-14T19:05:30.821Z,40.40
2018-11-14T19:08:01.029Z,42.67
2018-11-14T19:10:32.692Z,39.60
2018-11-14T19:13:03.011Z,39.40
2018-11-14T19:15:34.393Z,40.93
2018-11-14T19:18:04.349Z,39.43
2018-11-14T19:20:35.493Z,40.07
2018-11-14T19:23:06.997Z,41.67
2018-11-14T19:25:37.993Z,38.40
2018-11-14T19:28:09.806Z,40.27
2018-11-14T19:30:39.979Z,39.03
2018-11-14T19:33:10.250Z,40.33
2018-11-14T19:35:40.297Z,41.87
2018-11-14T19:38:10.543Z,42.97
2018-11-14T19:40:40.626Z,42.90
2018-11-14T19:43:11.741Z,40.90
2018-11-14T19:45:42.456Z,41.33
2018-11-14T19:48:12.754Z,39.90
2018-11-14T19:50:43.170Z,43.47
2018-11-14T19:53:13.552Z,44.77
2018-11-14T19:55:43.756Z,44.47
2018-11-14T19:58:13.502Z,44.90
2018-11-14T20:00:44.325Z,43.10
2018-11-14T20:03:14.425Z,44.40
2018-11-14T20:05:44.658Z,45.90
2018-11-14T20:08:14.915Z,46.27
2018-11-14T20:10:45.094Z,44.83
2018-11-14T20:13:15.008Z,45.23
2018-11-14T20:15:45.266Z,44.93
2018-11-14T20:18:15.176Z,44.30
2018-11-14T20:20:45.300Z,44.23
2018-11-14T20:23:15.379Z,45.40
2018-11-14T20:25:45.760Z,45.53
2018-11-14T20:28:15.716Z,43.77
2018-11-14T20:30:45.755Z,44.90
2018-11-14T20:33:15.868Z,43.63
2018-11-14T20:35:46.324Z,42.43
2018-11-14T20:38:16.382Z,43.37
2018-11-14T20:40:46.321Z,45.33
2018-11-14T20:43:16.420Z,44.80
2018-11-14T20:45:46.648Z,45.63
2018-11-14T20:48:16.700Z,46.67
2018-11-14T20:50:47.065Z,45.20
2018-11-14T20:53:17.170Z,46.27
2018-11-14T20:55:47.319Z,44.60
2018-11-14T20:58:17.282Z,45.83
2018-11-14T21:00:47.331Z,45.43
2018-11-14T21:03:17.515Z,45.83
2018-11-14T21:05:47.928Z,46.50
2018-11-14T21:08:17.819Z,44.50
2018-11-14T21:10:47.954Z,44.87
2018-11-14T21:13:17.977Z,47.07
2018-11-14T21:15:48.229Z,48.87
2018-11-14T21:18:18.107Z,47.17
2018-11-14T21:20:48.095Z,45.53
2018-11-14T21:23:18.199Z,50.00
2018-11-14T21:25:48.362Z,49.17
2018-11-14T21:28:18.556Z,49.87
2018-11-14T21:30:48.573Z,49.07
2018-11-14T21:33:18.597Z,49.20
2018-11-14T21:35:48.654Z,51.77
2018-11-14T21:38:18.565Z,47.77
2018-11-14T21:40:48.499Z,47.13
2018-11-14T21:43:18.573Z,46.50
2018-11-14T21:45:48.714Z,48.33
2018-11-14T21:48:19.131Z,48.60
2018-11-14T21:50:49.226Z,48.30
2018-11-14T21:53:19.244Z,53.40
2018-11-14T21:55:49.161Z,54.03
2018-11-14T21:58:18.970Z,51.27
2018-11-14T22:00:49.027Z,51.83
2018-11-14T22:03:19.026Z,52.40
2018-11-14T22:12:37.138Z,53.00
2018-11-14T22:15:08.718Z,49.47
2018-11-14T22:17:40.045Z,51.83
2018-11-14T22:20:12.600Z,50.87
2018-11-14T22:22:43.945Z,53.50
2018-11-14T22:25:16.726Z,52.67
2018-11-14T22:27:47.810Z,51.60
2018-11-14T22:30:23.678Z,47.73
2018-11-14T22:32:54.837Z,53.27
2018-11-14T22:35:27.223Z,49.97
2018-11-14T22:37:58.176Z,50.17
2018-11-14T22:40:30.382Z,51.83
2018-11-14T22:43:01.186Z,51.17
2018-11-14T22:45:33.378Z,51.53
2018-11-14T22:48:04.317Z,52.37
2018-11-14T22:50:34.943Z,52.33
2018-11-14T22:53:05.738Z,50.57
2018-11-14T22:55:36.861Z,52.33
2018-11-14T22:58:08.189Z,49.67
2018-11-14T23:00:46.298Z,48.67
2018-11-14T23:03:17.502Z,54.67
2018-11-14T23:05:48.506Z,52.97
2018-11-14T23:08:19.769Z,53.17
2018-11-14T23:10:51.414Z,48.97
2018-11-14T23:13:21.361Z,47.80
2018-11-14T23:15:52.181Z,50.30
2018-11-14T23:18:22.230Z,53.70
2018-11-14T23:20:52.139Z,55.43
2018-11-14T23:23:23.772Z,51.90
2018-11-14T23:25:54.019Z,49.40
2018-11-14T23:28:24.756Z,54.30
2018-11-14T23:30:55.508Z,55.20
2018-11-14T23:33:26.424Z,53.10
2018-11-14T23:35:57.698Z,56.70
2018-11-14T23:38:28.662Z,50.33
2018-11-14T23:40:58.927Z,53.07
2018-11-14T23:43:29.681Z,52.93
2018-11-14T23:46:00.576Z,49.03
2018-11-14T23:48:31.385Z,51.77
2018-11-14T23:51:02.768Z,55.83
2018-11-14T23:53:32.713Z,52.93
2018-11-14T23:56:03.577Z,54.50
2018-11-14T23:58:34.518Z,54.83
